AFL3107 ULLI-UKFF
Flight info
| Callsign | AFL3107 |
|---|---|
| Flight time | 3h 11m |
| Altitude | 37000 |
| Route | SUGIN1D SUGIN T873 TOKNU L4 EKTUT N72 UMSIS N166 ABLOG R242 AMEPU A100 ARNAD DCT PISEM |
| Aircraft | B738/M-SDE2E3FGHIRWXY/LB1 |
Departure
| Time | 2026-04-13 19:18 |
|---|---|
| Airport | Pulkovo Airport (ULLI) |
Arrival
| Time | 2026-04-13 22:30 |
|---|---|
| Airport | Simferopol International Airport (UKFF) |
| Time | Latitude | Longitude | Altitude | Speed | Heading |
|---|---|---|---|---|---|
| 2026-04-13 18:38 | 59.80056 | 30.26792 | 80 ft | 0 kts | 107° |
| 2026-04-13 19:08 | 59.80059 | 30.26774 | 84 ft | 2 kts | 107° |
| 2026-04-13 19:08 | 59.80063 | 30.26750 | 82 ft | 2 kts | 107° |
| 2026-04-13 19:08 | 59.80066 | 30.26725 | 80 ft | 2 kts | 105° |
| 2026-04-13 19:08 | 59.80066 | 30.26700 | 80 ft | 2 kts | 53° |
| 2026-04-13 19:09 | 59.80057 | 30.26685 | 85 ft | 0 kts | 6° |
| 2026-04-13 19:13 | 59.80062 | 30.26687 | 85 ft | 2 kts | 9° |
| 2026-04-13 19:13 | 59.80096 | 30.26703 | 81 ft | 8 kts | 15° |
| 2026-04-13 19:13 | 59.80172 | 30.26748 | 80 ft | 14 kts | 17° |
| 2026-04-13 19:13 | 59.80272 | 30.26807 | 80 ft | 14 kts | 16° |
| 2026-04-13 19:14 | 59.80356 | 30.26856 | 81 ft | 9 kts | 16° |
| 2026-04-13 19:14 | 59.80407 | 30.26785 | 84 ft | 13 kts | 289° |
| 2026-04-13 19:14 | 59.80437 | 30.26582 | 82 ft | 18 kts | 286° |
| 2026-04-13 19:14 | 59.80477 | 30.26320 | 83 ft | 21 kts | 287° |
| 2026-04-13 19:15 | 59.80522 | 30.26018 | 70 ft | 23 kts | 286° |
| 2026-04-13 19:15 | 59.80570 | 30.25698 | 74 ft | 25 kts | 286° |
| 2026-04-13 19:15 | 59.80616 | 30.25388 | 72 ft | 23 kts | 285° |
| 2026-04-13 19:15 | 59.80664 | 30.25073 | 65 ft | 24 kts | 287° |
| 2026-04-13 19:16 | 59.80711 | 30.24762 | 67 ft | 23 kts | 287° |
| 2026-04-13 19:16 | 59.80773 | 30.24613 | 68 ft | 12 kts | 344° |
| 2026-04-13 19:16 | 59.80850 | 30.24575 | 64 ft | 11 kts | 346° |
| 2026-04-13 19:16 | 59.80921 | 30.24559 | 63 ft | 8 kts | 3° |
| 2026-04-13 19:17 | 59.80958 | 30.24605 | 68 ft | 9 kts | 58° |
| 2026-04-13 19:17 | 59.80952 | 30.24722 | 64 ft | 9 kts | 109° |
| 2026-04-13 19:17 | 59.80920 | 30.24923 | 62 ft | 41 kts | 107° |
| 2026-04-13 19:17 | 59.80765 | 30.25944 | 73 ft | 112 kts | 107° |
| 2026-04-13 19:18 | 59.80483 | 30.27814 | 110 ft | 167 kts | 107° |
| 2026-04-13 19:18 | 59.80112 | 30.30221 | 425 ft | 199 kts | 107° |
| 2026-04-13 19:18 | 59.79696 | 30.32938 | 1042 ft | 204 kts | 106° |
| 2026-04-13 19:18 | 59.79290 | 30.35556 | 1980 ft | 198 kts | 105° |
| 2026-04-13 19:19 | 59.78892 | 30.38306 | 2308 ft | 219 kts | 105° |
| 2026-04-13 19:19 | 59.78457 | 30.41299 | 2792 ft | 231 kts | 105° |
| 2026-04-13 19:19 | 59.77987 | 30.44523 | 3165 ft | 252 kts | 106° |
| 2026-04-13 19:19 | 59.77490 | 30.47862 | 3495 ft | 257 kts | 106° |
| 2026-04-13 19:20 | 59.76984 | 30.51228 | 3497 ft | 257 kts | 106° |
| 2026-04-13 19:20 | 59.76473 | 30.54616 | 3491 ft | 255 kts | 106° |
| 2026-04-13 19:20 | 59.75970 | 30.57964 | 3487 ft | 253 kts | 106° |
| 2026-04-13 19:20 | 59.75486 | 30.61327 | 3502 ft | 254 kts | 105° |
| 2026-04-13 19:21 | 59.75006 | 30.64697 | 3507 ft | 254 kts | 105° |
| 2026-04-13 19:21 | 59.74524 | 30.68079 | 3502 ft | 255 kts | 105° |
| 2026-04-13 19:21 | 59.74041 | 30.71462 | 3505 ft | 256 kts | 105° |
| 2026-04-13 19:21 | 59.73555 | 30.74858 | 3504 ft | 256 kts | 105° |
| 2026-04-13 19:22 | 59.73068 | 30.78258 | 3506 ft | 256 kts | 105° |
| 2026-04-13 19:22 | 59.72579 | 30.81656 | 3501 ft | 256 kts | 105° |
| 2026-04-13 19:22 | 59.72089 | 30.85050 | 3495 ft | 256 kts | 105° |
| 2026-04-13 19:22 | 59.71600 | 30.88435 | 3496 ft | 255 kts | 105° |
| 2026-04-13 19:23 | 59.71112 | 30.91805 | 3501 ft | 254 kts | 105° |
| 2026-04-13 19:23 | 59.70624 | 30.95167 | 3500 ft | 254 kts | 105° |
| 2026-04-13 19:23 | 59.70135 | 30.98527 | 3501 ft | 254 kts | 105° |
| 2026-04-13 19:23 | 59.69647 | 31.01879 | 3500 ft | 253 kts | 105° |
| 2026-04-13 19:24 | 59.69158 | 31.05223 | 3495 ft | 253 kts | 106° |
| 2026-04-13 19:24 | 59.68669 | 31.08565 | 3501 ft | 253 kts | 106° |
| 2026-04-13 19:24 | 59.68179 | 31.11908 | 3504 ft | 252 kts | 106° |
| 2026-04-13 19:24 | 59.67688 | 31.15244 | 3503 ft | 253 kts | 106° |
| 2026-04-13 19:25 | 59.67196 | 31.18585 | 3502 ft | 253 kts | 106° |
| 2026-04-13 19:25 | 59.66702 | 31.21936 | 3496 ft | 254 kts | 106° |
| 2026-04-13 19:25 | 59.66207 | 31.25284 | 3498 ft | 254 kts | 106° |
| 2026-04-13 19:25 | 59.65711 | 31.28632 | 3497 ft | 254 kts | 106° |
| 2026-04-13 19:26 | 59.65213 | 31.31984 | 3503 ft | 254 kts | 106° |
| 2026-04-13 19:26 | 59.64714 | 31.35336 | 3499 ft | 254 kts | 106° |
| 2026-04-13 19:26 | 59.64216 | 31.38683 | 3495 ft | 254 kts | 106° |
| 2026-04-13 19:26 | 59.63714 | 31.42036 | 3495 ft | 255 kts | 106° |
| 2026-04-13 19:27 | 59.63211 | 31.45398 | 3506 ft | 255 kts | 106° |
| 2026-04-13 19:27 | 59.62708 | 31.48757 | 3501 ft | 255 kts | 106° |
| 2026-04-13 19:27 | 59.62202 | 31.52122 | 3498 ft | 256 kts | 106° |
| 2026-04-13 19:27 | 59.61694 | 31.55496 | 3492 ft | 256 kts | 106° |
| 2026-04-13 19:28 | 59.61186 | 31.58865 | 3490 ft | 256 kts | 105° |
| 2026-04-13 19:28 | 59.60678 | 31.62227 | 3496 ft | 256 kts | 106° |
| 2026-04-13 19:28 | 59.60176 | 31.65542 | 3491 ft | 255 kts | 106° |
| 2026-04-13 19:28 | 59.59666 | 31.68900 | 3495 ft | 255 kts | 106° |
| 2026-04-13 19:29 | 59.59155 | 31.72260 | 3493 ft | 255 kts | 106° |
| 2026-04-13 19:29 | 59.58645 | 31.75612 | 3493 ft | 255 kts | 106° |
| 2026-04-13 19:29 | 59.58133 | 31.78962 | 3492 ft | 255 kts | 106° |
| 2026-04-13 19:29 | 59.57621 | 31.82313 | 3485 ft | 255 kts | 106° |
| 2026-04-13 19:30 | 59.57109 | 31.85656 | 3492 ft | 254 kts | 106° |
| 2026-04-13 19:30 | 59.56596 | 31.88998 | 3493 ft | 255 kts | 106° |
| 2026-04-13 19:30 | 59.56082 | 31.92337 | 3493 ft | 255 kts | 106° |
| 2026-04-13 19:30 | 59.55567 | 31.95686 | 3492 ft | 255 kts | 106° |
| 2026-04-13 19:31 | 59.55052 | 31.99029 | 3485 ft | 255 kts | 106° |
| 2026-04-13 19:31 | 59.54534 | 32.02369 | 3494 ft | 255 kts | 106° |
| 2026-04-13 19:31 | 59.54016 | 32.05704 | 3485 ft | 254 kts | 106° |
| 2026-04-13 19:31 | 59.53498 | 32.09037 | 3484 ft | 254 kts | 107° |
| 2026-04-13 19:32 | 59.52691 | 32.12109 | 3481 ft | 255 kts | 131° |
| 2026-04-13 19:32 | 59.51439 | 32.14587 | 3488 ft | 256 kts | 134° |
| 2026-04-13 19:32 | 59.50168 | 32.17045 | 3489 ft | 257 kts | 134° |
| 2026-04-13 19:32 | 59.48893 | 32.19512 | 3486 ft | 257 kts | 134° |
| 2026-04-13 19:33 | 59.47616 | 32.21989 | 3490 ft | 258 kts | 134° |
| 2026-04-13 19:33 | 59.46335 | 32.24475 | 3482 ft | 258 kts | 134° |
| 2026-04-13 19:33 | 59.45056 | 32.26959 | 3480 ft | 259 kts | 134° |
| 2026-04-13 19:34 | 59.42496 | 32.31934 | 3485 ft | 259 kts | 134° |
| 2026-04-13 19:34 | 59.41236 | 32.34383 | 3484 ft | 258 kts | 134° |
| 2026-04-13 19:34 | 59.39960 | 32.36862 | 3484 ft | 258 kts | 134° |
| 2026-04-13 19:34 | 59.38685 | 32.39336 | 3483 ft | 258 kts | 134° |
| 2026-04-13 19:35 | 59.37409 | 32.41810 | 3476 ft | 258 kts | 134° |
| 2026-04-13 19:35 | 59.36135 | 32.44279 | 3484 ft | 257 kts | 134° |
| 2026-04-13 19:35 | 59.34860 | 32.46746 | 3478 ft | 257 kts | 134° |
| 2026-04-13 19:35 | 59.34018 | 32.48375 | 3488 ft | 257 kts | 134° |
| 2026-04-13 19:36 | 59.32746 | 32.50832 | 3483 ft | 257 kts | 134° |
| 2026-04-13 19:36 | 59.31473 | 32.53290 | 3478 ft | 257 kts | 134° |
| 2026-04-13 19:36 | 59.30199 | 32.55746 | 3475 ft | 257 kts | 134° |
| 2026-04-13 19:36 | 59.28926 | 32.58199 | 3484 ft | 257 kts | 134° |
| 2026-04-13 19:37 | 59.27653 | 32.60647 | 3486 ft | 257 kts | 134° |
| 2026-04-13 19:37 | 59.26378 | 32.63097 | 3482 ft | 257 kts | 134° |
| 2026-04-13 19:37 | 59.25099 | 32.65553 | 3483 ft | 258 kts | 134° |
| 2026-04-13 19:37 | 59.23807 | 32.68032 | 3765 ft | 263 kts | 134° |
| 2026-04-13 19:38 | 59.22504 | 32.70528 | 4710 ft | 261 kts | 134° |
| 2026-04-13 19:38 | 59.21206 | 32.73011 | 5620 ft | 262 kts | 134° |
| 2026-04-13 19:38 | 59.19895 | 32.75519 | 6429 ft | 266 kts | 134° |
| 2026-04-13 19:38 | 59.18563 | 32.78061 | 7221 ft | 270 kts | 134° |
| 2026-04-13 19:39 | 59.17215 | 32.80631 | 8023 ft | 272 kts | 134° |
| 2026-04-13 19:39 | 59.15857 | 32.83219 | 8825 ft | 274 kts | 134° |
| 2026-04-13 19:39 | 59.14484 | 32.85831 | 9626 ft | 277 kts | 135° |
| 2026-04-13 19:39 | 59.13092 | 32.88475 | 10433 ft | 280 kts | 135° |
| 2026-04-13 19:40 | 59.11678 | 32.91160 | 10951 ft | 292 kts | 135° |
| 2026-04-13 19:40 | 59.10163 | 32.94034 | 11127 ft | 316 kts | 135° |
| 2026-04-13 19:40 | 59.08536 | 32.97118 | 11311 ft | 337 kts | 135° |
| 2026-04-13 19:40 | 59.06803 | 33.00395 | 11485 ft | 358 kts | 135° |
| 2026-04-13 19:41 | 59.04976 | 33.03843 | 11769 ft | 372 kts | 135° |
| 2026-04-13 19:41 | 59.03126 | 33.07327 | 12348 ft | 377 kts | 135° |
| 2026-04-13 19:41 | 59.01213 | 33.10924 | 13055 ft | 379 kts | 135° |
| 2026-04-13 19:42 | 58.97417 | 33.18049 | 14385 ft | 385 kts | 135° |
| 2026-04-13 19:42 | 58.95484 | 33.21671 | 14989 ft | 388 kts | 135° |
| 2026-04-13 19:42 | 58.93541 | 33.25303 | 15633 ft | 389 kts | 134° |
| 2026-04-13 19:42 | 58.91589 | 33.28945 | 16249 ft | 391 kts | 134° |
| 2026-04-13 19:43 | 58.89626 | 33.32599 | 16851 ft | 393 kts | 134° |
| 2026-04-13 19:43 | 58.87648 | 33.36272 | 17442 ft | 395 kts | 134° |
| 2026-04-13 19:43 | 58.85661 | 33.39957 | 18032 ft | 397 kts | 134° |
| 2026-04-13 19:43 | 58.83660 | 33.43663 | 18622 ft | 400 kts | 134° |
| 2026-04-13 19:44 | 58.81641 | 33.47399 | 19046 ft | 405 kts | 134° |
| 2026-04-13 19:44 | 58.79596 | 33.51175 | 19485 ft | 408 kts | 134° |
| 2026-04-13 19:44 | 58.77541 | 33.54964 | 19999 ft | 409 kts | 134° |
| 2026-04-13 19:44 | 58.75473 | 33.58769 | 20480 ft | 412 kts | 134° |
| 2026-04-13 19:45 | 58.73395 | 33.62586 | 20921 ft | 414 kts | 134° |
| 2026-04-13 19:45 | 58.71302 | 33.66426 | 21361 ft | 417 kts | 135° |
| 2026-04-13 19:45 | 58.69193 | 33.70288 | 21808 ft | 420 kts | 135° |
| 2026-04-13 19:45 | 58.67072 | 33.74164 | 22227 ft | 422 kts | 135° |
| 2026-04-13 19:46 | 58.64939 | 33.78056 | 22652 ft | 424 kts | 135° |
| 2026-04-13 19:46 | 58.62789 | 33.81971 | 23063 ft | 427 kts | 135° |
| 2026-04-13 19:46 | 58.60628 | 33.85901 | 23511 ft | 428 kts | 135° |
| 2026-04-13 19:46 | 58.58460 | 33.89834 | 23919 ft | 431 kts | 135° |
| 2026-04-13 19:47 | 58.56305 | 33.93739 | 24220 ft | 434 kts | 135° |
| 2026-04-13 19:47 | 58.54105 | 33.97717 | 24528 ft | 436 kts | 135° |
| 2026-04-13 19:47 | 58.51897 | 34.01703 | 24859 ft | 437 kts | 135° |
| 2026-04-13 19:47 | 58.49678 | 34.05700 | 25180 ft | 439 kts | 135° |
| 2026-04-13 19:48 | 58.47447 | 34.09713 | 25474 ft | 441 kts | 135° |
| 2026-04-13 19:48 | 58.45205 | 34.13738 | 25756 ft | 443 kts | 135° |
| 2026-04-13 19:48 | 58.42952 | 34.17776 | 26042 ft | 445 kts | 135° |
| 2026-04-13 19:48 | 58.40690 | 34.21821 | 26329 ft | 447 kts | 135° |
| 2026-04-13 19:49 | 58.38418 | 34.25879 | 26608 ft | 449 kts | 135° |
| 2026-04-13 19:49 | 58.36131 | 34.29955 | 26864 ft | 451 kts | 135° |
| 2026-04-13 19:49 | 58.33837 | 34.34036 | 27161 ft | 452 kts | 135° |
| 2026-04-13 19:49 | 58.31542 | 34.38109 | 27603 ft | 449 kts | 135° |
| 2026-04-13 19:50 | 58.29263 | 34.42148 | 28093 ft | 446 kts | 135° |
| 2026-04-13 19:50 | 58.26996 | 34.46161 | 28503 ft | 445 kts | 135° |
| 2026-04-13 19:50 | 58.24729 | 34.50166 | 28863 ft | 445 kts | 136° |
| 2026-04-13 19:50 | 58.22458 | 34.54155 | 29247 ft | 445 kts | 137° |
| 2026-04-13 19:51 | 58.20009 | 34.57730 | 29651 ft | 445 kts | 146° |
| 2026-04-13 19:51 | 58.17302 | 34.60560 | 30068 ft | 445 kts | 154° |
| 2026-04-13 19:51 | 58.14452 | 34.62838 | 30492 ft | 444 kts | 155° |
| 2026-04-13 19:51 | 58.11597 | 34.65078 | 30773 ft | 444 kts | 156° |
| 2026-04-13 19:52 | 58.08736 | 34.67332 | 30985 ft | 446 kts | 156° |
| 2026-04-13 19:52 | 58.05872 | 34.69606 | 31217 ft | 447 kts | 155° |
| 2026-04-13 19:52 | 58.03013 | 34.71891 | 31493 ft | 446 kts | 155° |
| 2026-04-13 19:52 | 58.00156 | 34.74184 | 31769 ft | 446 kts | 155° |
| 2026-04-13 19:53 | 57.97293 | 34.76485 | 31947 ft | 449 kts | 155° |
| 2026-04-13 19:53 | 57.94414 | 34.78796 | 32175 ft | 449 kts | 155° |
| 2026-04-13 19:53 | 57.91578 | 34.81069 | 32453 ft | 449 kts | 155° |
| 2026-04-13 19:53 | 57.88706 | 34.83366 | 32716 ft | 449 kts | 156° |
| 2026-04-13 19:54 | 57.85827 | 34.85663 | 32933 ft | 450 kts | 156° |
| 2026-04-13 19:54 | 57.82949 | 34.87957 | 33159 ft | 450 kts | 156° |
| 2026-04-13 19:54 | 57.80064 | 34.90251 | 33433 ft | 449 kts | 156° |
| 2026-04-13 19:54 | 57.77189 | 34.92534 | 33749 ft | 448 kts | 156° |
| 2026-04-13 19:55 | 57.74323 | 34.94806 | 33976 ft | 448 kts | 156° |
| 2026-04-13 19:55 | 57.71446 | 34.97101 | 34159 ft | 449 kts | 155° |
| 2026-04-13 19:55 | 57.68668 | 34.99780 | 34354 ft | 449 kts | 150° |
| 2026-04-13 19:55 | 57.65966 | 35.02703 | 34584 ft | 449 kts | 149° |
| 2026-04-13 19:56 | 57.63283 | 35.05684 | 34775 ft | 449 kts | 148° |
| 2026-04-13 19:56 | 57.60600 | 35.08674 | 34942 ft | 449 kts | 148° |
| 2026-04-13 19:56 | 57.57911 | 35.11647 | 35109 ft | 449 kts | 149° |
| 2026-04-13 19:56 | 57.55216 | 35.14598 | 35292 ft | 449 kts | 149° |
| 2026-04-13 19:57 | 57.52512 | 35.17532 | 35446 ft | 450 kts | 149° |
| 2026-04-13 19:57 | 57.49797 | 35.20461 | 35563 ft | 452 kts | 149° |
| 2026-04-13 19:57 | 57.47075 | 35.23384 | 35759 ft | 451 kts | 149° |
| 2026-04-13 19:57 | 57.44359 | 35.26293 | 35958 ft | 450 kts | 149° |
| 2026-04-13 19:58 | 57.41644 | 35.29195 | 36120 ft | 451 kts | 149° |
| 2026-04-13 19:58 | 57.38925 | 35.32097 | 36254 ft | 451 kts | 149° |
| 2026-04-13 19:58 | 57.36195 | 35.35007 | 36420 ft | 451 kts | 149° |
| 2026-04-13 19:58 | 57.33472 | 35.37905 | 36576 ft | 451 kts | 149° |
| 2026-04-13 19:59 | 57.30745 | 35.40802 | 36729 ft | 451 kts | 149° |
| 2026-04-13 19:59 | 57.28058 | 35.43652 | 36879 ft | 452 kts | 149° |
| 2026-04-13 19:59 | 57.25332 | 35.46539 | 37024 ft | 452 kts | 150° |
| 2026-04-13 19:59 | 57.22602 | 35.49426 | 37188 ft | 451 kts | 150° |
| 2026-04-13 20:00 | 57.19887 | 35.52291 | 37373 ft | 450 kts | 150° |
| 2026-04-13 20:00 | 57.17163 | 35.55161 | 37414 ft | 452 kts | 150° |
| 2026-04-13 20:00 | 57.11691 | 35.60910 | 37420 ft | 453 kts | 150° |
| 2026-04-13 20:01 | 57.06228 | 35.66631 | 37417 ft | 451 kts | 150° |
| 2026-04-13 20:01 | 57.00779 | 35.72318 | 37409 ft | 450 kts | 150° |
| 2026-04-13 20:02 | 56.95343 | 35.77973 | 37413 ft | 449 kts | 150° |
| 2026-04-13 20:02 | 56.89915 | 35.83600 | 37400 ft | 448 kts | 150° |
| 2026-04-13 20:03 | 56.84487 | 35.89209 | 37399 ft | 448 kts | 150° |
| 2026-04-13 20:03 | 56.79063 | 35.94796 | 37396 ft | 448 kts | 150° |
| 2026-04-13 20:04 | 56.73627 | 36.00376 | 37398 ft | 448 kts | 150° |
| 2026-04-13 20:04 | 56.68243 | 36.05880 | 37385 ft | 449 kts | 151° |
| 2026-04-13 20:05 | 56.62775 | 36.11453 | 37391 ft | 449 kts | 151° |
| 2026-04-13 20:05 | 56.57323 | 36.16996 | 37381 ft | 449 kts | 151° |
| 2026-04-13 20:06 | 56.51863 | 36.22528 | 37392 ft | 449 kts | 151° |
| 2026-04-13 20:06 | 56.46403 | 36.28042 | 37381 ft | 449 kts | 151° |
| 2026-04-13 20:07 | 56.40936 | 36.33547 | 37380 ft | 450 kts | 151° |
| 2026-04-13 20:07 | 56.35795 | 36.39924 | 37373 ft | 450 kts | 137° |
| 2026-04-13 20:08 | 56.31758 | 36.48535 | 37383 ft | 451 kts | 127° |
| 2026-04-13 20:08 | 56.28035 | 36.57619 | 37373 ft | 451 kts | 127° |
| 2026-04-13 20:09 | 56.24274 | 36.66675 | 37371 ft | 451 kts | 128° |
| 2026-04-13 20:09 | 56.20486 | 36.75662 | 37365 ft | 451 kts | 128° |
| 2026-04-13 20:10 | 56.16683 | 36.84627 | 37356 ft | 451 kts | 128° |
| 2026-04-13 20:10 | 56.12908 | 36.93501 | 37355 ft | 450 kts | 128° |
| 2026-04-13 20:11 | 56.09103 | 37.02418 | 37355 ft | 450 kts | 129° |
| 2026-04-13 20:11 | 56.05321 | 37.11333 | 37348 ft | 449 kts | 128° |
| 2026-04-13 20:12 | 56.01578 | 37.20271 | 37346 ft | 448 kts | 128° |
| 2026-04-13 20:12 | 55.97752 | 37.29044 | 37336 ft | 446 kts | 135° |
| 2026-04-13 20:13 | 55.92968 | 37.35958 | 37357 ft | 442 kts | 147° |
| 2026-04-13 20:13 | 55.87814 | 37.41949 | 37347 ft | 442 kts | 148° |
| 2026-04-13 20:14 | 55.82673 | 37.47970 | 37344 ft | 442 kts | 147° |
| 2026-04-13 20:14 | 55.77559 | 37.54015 | 37332 ft | 441 kts | 147° |
| 2026-04-13 20:15 | 55.72449 | 37.60053 | 37330 ft | 441 kts | 147° |
| 2026-04-13 20:15 | 55.67344 | 37.66063 | 37331 ft | 440 kts | 147° |
| 2026-04-13 20:16 | 55.62127 | 37.71749 | 37328 ft | 439 kts | 153° |
| 2026-04-13 20:16 | 55.56745 | 37.76727 | 37326 ft | 439 kts | 153° |
| 2026-04-13 20:17 | 55.51335 | 37.81729 | 37322 ft | 439 kts | 153° |
| 2026-04-13 20:17 | 55.45945 | 37.86796 | 37317 ft | 439 kts | 153° |
| 2026-04-13 20:18 | 55.40547 | 37.91811 | 37316 ft | 438 kts | 156° |
| 2026-04-13 20:18 | 55.34755 | 37.94842 | 37325 ft | 435 kts | 171° |
| 2026-04-13 20:19 | 55.28778 | 37.96529 | 37320 ft | 435 kts | 171° |
| 2026-04-13 20:19 | 55.22802 | 37.98236 | 37327 ft | 435 kts | 171° |
| 2026-04-13 20:20 | 55.16837 | 37.99985 | 37314 ft | 434 kts | 171° |
| 2026-04-13 20:20 | 55.10878 | 38.01746 | 37315 ft | 434 kts | 171° |
| 2026-04-13 20:21 | 55.04927 | 38.03501 | 37312 ft | 434 kts | 171° |
| 2026-04-13 20:21 | 54.99014 | 38.05238 | 37311 ft | 433 kts | 171° |
| 2026-04-13 20:22 | 54.93070 | 38.06978 | 37305 ft | 433 kts | 171° |
| 2026-04-13 20:22 | 54.87135 | 38.08710 | 37307 ft | 432 kts | 171° |
| 2026-04-13 20:23 | 54.81203 | 38.10437 | 37298 ft | 432 kts | 171° |
| 2026-04-13 20:23 | 54.75281 | 38.12156 | 37303 ft | 431 kts | 171° |
| 2026-04-13 20:24 | 54.70322 | 38.13591 | 37299 ft | 431 kts | 171° |
| 2026-04-13 20:24 | 54.64449 | 38.15285 | 37295 ft | 431 kts | 171° |
| 2026-04-13 20:25 | 54.58538 | 38.16986 | 37295 ft | 430 kts | 171° |
| 2026-04-13 20:25 | 54.52626 | 38.18684 | 37293 ft | 430 kts | 171° |
| 2026-04-13 20:26 | 54.46724 | 38.20375 | 37286 ft | 430 kts | 171° |
| 2026-04-13 20:26 | 54.40817 | 38.22070 | 37283 ft | 430 kts | 171° |
| 2026-04-13 20:27 | 54.34915 | 38.23761 | 37279 ft | 430 kts | 170° |
| 2026-04-13 20:27 | 54.29094 | 38.26105 | 37287 ft | 430 kts | 166° |
| 2026-04-13 20:28 | 54.23304 | 38.28683 | 37279 ft | 430 kts | 166° |
| 2026-04-13 20:28 | 54.17503 | 38.31235 | 37275 ft | 430 kts | 166° |
| 2026-04-13 20:29 | 54.11700 | 38.33745 | 37276 ft | 430 kts | 166° |
| 2026-04-13 20:29 | 54.05893 | 38.36238 | 37272 ft | 431 kts | 166° |
| 2026-04-13 20:30 | 54.00081 | 38.38726 | 37265 ft | 431 kts | 166° |
| 2026-04-13 20:30 | 53.94260 | 38.41211 | 37263 ft | 431 kts | 166° |
| 2026-04-13 20:31 | 53.88441 | 38.43689 | 37244 ft | 431 kts | 166° |
| 2026-04-13 20:31 | 53.82618 | 38.46162 | 37256 ft | 431 kts | 166° |
| 2026-04-13 20:32 | 53.76835 | 38.48612 | 37258 ft | 431 kts | 166° |
| 2026-04-13 20:32 | 53.70991 | 38.50935 | 37249 ft | 432 kts | 168° |
| 2026-04-13 20:33 | 53.65087 | 38.52838 | 37254 ft | 432 kts | 169° |
| 2026-04-13 20:33 | 53.59177 | 38.54697 | 37242 ft | 432 kts | 169° |
| 2026-04-13 20:34 | 53.53270 | 38.56600 | 37241 ft | 432 kts | 169° |
| 2026-04-13 20:34 | 53.47361 | 38.58529 | 37238 ft | 432 kts | 169° |
| 2026-04-13 20:35 | 53.41454 | 38.60460 | 37250 ft | 433 kts | 169° |
| 2026-04-13 20:35 | 53.35540 | 38.62388 | 37240 ft | 433 kts | 169° |
| 2026-04-13 20:36 | 53.29625 | 38.64309 | 37242 ft | 433 kts | 169° |
| 2026-04-13 20:36 | 53.23700 | 38.66228 | 37216 ft | 434 kts | 169° |
| 2026-04-13 20:37 | 53.17777 | 38.68141 | 37233 ft | 433 kts | 169° |
| 2026-04-13 20:37 | 53.11851 | 38.70049 | 37231 ft | 433 kts | 169° |
| 2026-04-13 20:38 | 53.05962 | 38.71941 | 37232 ft | 433 kts | 169° |
| 2026-04-13 20:38 | 53.00038 | 38.73838 | 37229 ft | 434 kts | 169° |
| 2026-04-13 20:39 | 52.94116 | 38.75729 | 37211 ft | 434 kts | 169° |
| 2026-04-13 20:39 | 52.88185 | 38.77618 | 37216 ft | 433 kts | 169° |
| 2026-04-13 20:40 | 52.82263 | 38.79499 | 37207 ft | 433 kts | 169° |
| 2026-04-13 20:40 | 52.76344 | 38.81374 | 37207 ft | 433 kts | 169° |
| 2026-04-13 20:41 | 52.70422 | 38.83244 | 37211 ft | 433 kts | 169° |
| 2026-04-13 20:41 | 52.64501 | 38.85109 | 37202 ft | 433 kts | 169° |
| 2026-04-13 20:42 | 52.58574 | 38.86971 | 37187 ft | 434 kts | 169° |
| 2026-04-13 20:42 | 52.52653 | 38.88826 | 37199 ft | 433 kts | 169° |
| 2026-04-13 20:43 | 52.46729 | 38.90678 | 37198 ft | 433 kts | 169° |
| 2026-04-13 20:43 | 52.40864 | 38.92646 | 37183 ft | 433 kts | 163° |
| 2026-04-13 20:44 | 52.35368 | 38.96748 | 37187 ft | 433 kts | 147° |
| 2026-04-13 20:44 | 52.30365 | 39.02249 | 37195 ft | 434 kts | 147° |
| 2026-04-13 20:45 | 52.25371 | 39.07662 | 37177 ft | 433 kts | 148° |
| 2026-04-13 20:46 | 52.17803 | 39.15736 | 37175 ft | 433 kts | 148° |
| 2026-04-13 20:46 | 52.12762 | 39.21103 | 37171 ft | 433 kts | 148° |
| 2026-04-13 20:47 | 52.07718 | 39.26455 | 37172 ft | 433 kts | 148° |
| 2026-04-13 20:47 | 52.02675 | 39.31785 | 37164 ft | 432 kts | 148° |
| 2026-04-13 20:48 | 51.97642 | 39.37095 | 37158 ft | 431 kts | 148° |
| 2026-04-13 20:48 | 51.92616 | 39.42385 | 37155 ft | 430 kts | 148° |
| 2026-04-13 20:49 | 51.87597 | 39.47653 | 37157 ft | 429 kts | 148° |
| 2026-04-13 20:49 | 51.82585 | 39.52900 | 37160 ft | 428 kts | 148° |
| 2026-04-13 20:50 | 51.77622 | 39.58084 | 37147 ft | 428 kts | 148° |
| 2026-04-13 20:50 | 51.72532 | 39.63017 | 37144 ft | 426 kts | 156° |
| 2026-04-13 20:51 | 51.66959 | 39.66171 | 37142 ft | 424 kts | 162° |
| 2026-04-13 20:51 | 51.61352 | 39.69143 | 37147 ft | 424 kts | 161° |
| 2026-04-13 20:52 | 51.55754 | 39.72151 | 37146 ft | 423 kts | 161° |
| 2026-04-13 20:52 | 51.50173 | 39.75165 | 37137 ft | 423 kts | 161° |
| 2026-04-13 20:53 | 51.44590 | 39.78178 | 37130 ft | 423 kts | 161° |
| 2026-04-13 20:53 | 51.39010 | 39.81179 | 37156 ft | 423 kts | 161° |
| 2026-04-13 20:54 | 51.33426 | 39.84175 | 37129 ft | 423 kts | 161° |
| 2026-04-13 20:54 | 51.27835 | 39.87167 | 37123 ft | 424 kts | 161° |
| 2026-04-13 20:55 | 51.22236 | 39.90155 | 37118 ft | 424 kts | 161° |
| 2026-04-13 20:55 | 51.16668 | 39.93121 | 37121 ft | 425 kts | 161° |
| 2026-04-13 20:56 | 51.11058 | 39.96100 | 37112 ft | 425 kts | 161° |
| 2026-04-13 20:56 | 51.05445 | 39.99068 | 37115 ft | 425 kts | 161° |
| 2026-04-13 20:57 | 50.99828 | 40.02030 | 37116 ft | 426 kts | 161° |
| 2026-04-13 20:57 | 50.94201 | 40.04992 | 37111 ft | 426 kts | 161° |
| 2026-04-13 20:58 | 50.88575 | 40.07947 | 37102 ft | 426 kts | 161° |
| 2026-04-13 20:58 | 50.82933 | 40.10900 | 37104 ft | 427 kts | 161° |
| 2026-04-13 20:59 | 50.77326 | 40.13827 | 37099 ft | 427 kts | 161° |
| 2026-04-13 20:59 | 50.71683 | 40.16767 | 37099 ft | 427 kts | 161° |
| 2026-04-13 21:00 | 50.66041 | 40.19699 | 37090 ft | 427 kts | 161° |
| 2026-04-13 21:00 | 50.60395 | 40.22626 | 37107 ft | 427 kts | 161° |
| 2026-04-13 21:01 | 50.54749 | 40.25547 | 37103 ft | 428 kts | 161° |
| 2026-04-13 21:01 | 50.49094 | 40.28465 | 37097 ft | 428 kts | 161° |
| 2026-04-13 21:02 | 50.43442 | 40.31373 | 37093 ft | 427 kts | 161° |
| 2026-04-13 21:02 | 50.37787 | 40.34275 | 37091 ft | 427 kts | 161° |
| 2026-04-13 21:03 | 50.32134 | 40.37170 | 37089 ft | 427 kts | 161° |
| 2026-04-13 21:03 | 50.26479 | 40.40059 | 37082 ft | 427 kts | 161° |
| 2026-04-13 21:04 | 50.20826 | 40.42939 | 37083 ft | 428 kts | 160° |
| 2026-04-13 21:04 | 50.15162 | 40.45818 | 37082 ft | 428 kts | 160° |
| 2026-04-13 21:05 | 50.09504 | 40.48688 | 37083 ft | 428 kts | 160° |
| 2026-04-13 21:05 | 50.03837 | 40.51550 | 37079 ft | 428 kts | 160° |
| 2026-04-13 21:06 | 49.98161 | 40.54401 | 37083 ft | 428 kts | 160° |
| 2026-04-13 21:06 | 49.92483 | 40.57246 | 37067 ft | 429 kts | 160° |
| 2026-04-13 21:07 | 49.86805 | 40.60087 | 37095 ft | 429 kts | 160° |
| 2026-04-13 21:07 | 49.81118 | 40.62925 | 37077 ft | 429 kts | 160° |
| 2026-04-13 21:08 | 49.75465 | 40.65740 | 37066 ft | 430 kts | 160° |
| 2026-04-13 21:08 | 49.69765 | 40.68572 | 37067 ft | 430 kts | 160° |
| 2026-04-13 21:09 | 49.63980 | 40.70999 | 37063 ft | 433 kts | 169° |
| 2026-04-13 21:09 | 49.57940 | 40.71233 | 37073 ft | 436 kts | 179° |
| 2026-04-13 21:10 | 49.51861 | 40.70962 | 37079 ft | 437 kts | 178° |
| 2026-04-13 21:10 | 49.45778 | 40.70760 | 37067 ft | 438 kts | 178° |
| 2026-04-13 21:11 | 49.39685 | 40.70586 | 37062 ft | 438 kts | 178° |
| 2026-04-13 21:11 | 49.34613 | 40.70444 | 37065 ft | 439 kts | 178° |
| 2026-04-13 21:12 | 49.27504 | 40.70260 | 37061 ft | 439 kts | 178° |
| 2026-04-13 21:12 | 49.22378 | 40.70127 | 37071 ft | 440 kts | 178° |
| 2026-04-13 21:13 | 49.16248 | 40.69968 | 37063 ft | 441 kts | 178° |
| 2026-04-13 21:13 | 49.10150 | 40.69810 | 37066 ft | 442 kts | 178° |
| 2026-04-13 21:14 | 49.03999 | 40.69650 | 37060 ft | 442 kts | 178° |
| 2026-04-13 21:14 | 48.97837 | 40.69490 | 37063 ft | 443 kts | 178° |
| 2026-04-13 21:15 | 48.91668 | 40.69273 | 37060 ft | 445 kts | 181° |
| 2026-04-13 21:15 | 48.85536 | 40.67682 | 37064 ft | 449 kts | 188° |
| 2026-04-13 21:16 | 48.79414 | 40.65775 | 37070 ft | 449 kts | 188° |
| 2026-04-13 21:16 | 48.73280 | 40.63933 | 37058 ft | 450 kts | 188° |
| 2026-04-13 21:17 | 48.67121 | 40.62138 | 37070 ft | 451 kts | 188° |
| 2026-04-13 21:17 | 48.60949 | 40.60353 | 37063 ft | 452 kts | 188° |
| 2026-04-13 21:18 | 48.54769 | 40.58567 | 37067 ft | 453 kts | 188° |
| 2026-04-13 21:18 | 48.48576 | 40.56780 | 37065 ft | 453 kts | 188° |
| 2026-04-13 21:19 | 48.42418 | 40.55011 | 37064 ft | 454 kts | 188° |
| 2026-04-13 21:19 | 48.36208 | 40.53247 | 37071 ft | 454 kts | 188° |
| 2026-04-13 21:20 | 48.29994 | 40.51487 | 37070 ft | 455 kts | 188° |
| 2026-04-13 21:20 | 48.23772 | 40.49727 | 37065 ft | 455 kts | 188° |
| 2026-04-13 21:21 | 48.17543 | 40.47969 | 37069 ft | 455 kts | 188° |
| 2026-04-13 21:21 | 48.11320 | 40.46215 | 37069 ft | 455 kts | 188° |
| 2026-04-13 21:22 | 48.05084 | 40.44463 | 37075 ft | 455 kts | 188° |
| 2026-04-13 21:22 | 47.98854 | 40.42716 | 37067 ft | 456 kts | 188° |
| 2026-04-13 21:23 | 47.92620 | 40.40974 | 37071 ft | 456 kts | 188° |
| 2026-04-13 21:23 | 47.86374 | 40.39231 | 37072 ft | 457 kts | 188° |
| 2026-04-13 21:24 | 47.80198 | 40.36940 | 37075 ft | 460 kts | 200° |
| 2026-04-13 21:24 | 47.74569 | 40.32344 | 37079 ft | 464 kts | 210° |
| 2026-04-13 21:25 | 47.69106 | 40.27210 | 37086 ft | 465 kts | 210° |
| 2026-04-13 21:25 | 47.63658 | 40.22154 | 37083 ft | 466 kts | 210° |
| 2026-04-13 21:26 | 47.58141 | 40.17111 | 37080 ft | 466 kts | 210° |
| 2026-04-13 21:26 | 47.52608 | 40.12087 | 37088 ft | 467 kts | 210° |
| 2026-04-13 21:27 | 47.47072 | 40.07071 | 37079 ft | 467 kts | 210° |
| 2026-04-13 21:27 | 47.41528 | 40.02057 | 37077 ft | 467 kts | 210° |
| 2026-04-13 21:28 | 47.35979 | 39.97050 | 37077 ft | 467 kts | 210° |
| 2026-04-13 21:28 | 47.30428 | 39.92054 | 37089 ft | 467 kts | 210° |
| 2026-04-13 21:29 | 47.24877 | 39.87068 | 37092 ft | 467 kts | 210° |
| 2026-04-13 21:29 | 47.19539 | 39.81637 | 37090 ft | 468 kts | 221° |
| 2026-04-13 21:30 | 47.15291 | 39.74399 | 37115 ft | 469 kts | 231° |
| 2026-04-13 21:30 | 47.11334 | 39.66801 | 37110 ft | 468 kts | 232° |
| 2026-04-13 21:31 | 47.07353 | 39.59241 | 37110 ft | 468 kts | 231° |
| 2026-04-13 21:31 | 47.03367 | 39.51781 | 37116 ft | 467 kts | 231° |
| 2026-04-13 21:32 | 46.99347 | 39.44310 | 37127 ft | 467 kts | 231° |
| 2026-04-13 21:32 | 46.95321 | 39.36849 | 37122 ft | 466 kts | 231° |
| 2026-04-13 21:33 | 46.91298 | 39.29410 | 37124 ft | 466 kts | 231° |
| 2026-04-13 21:33 | 46.87270 | 39.21980 | 37131 ft | 466 kts | 231° |
| 2026-04-13 21:34 | 46.81224 | 39.10866 | 37130 ft | 466 kts | 231° |
| 2026-04-13 21:34 | 46.77183 | 39.03460 | 37136 ft | 466 kts | 231° |
| 2026-04-13 21:35 | 46.73137 | 38.96068 | 37143 ft | 467 kts | 231° |
| 2026-04-13 21:36 | 46.67051 | 38.84981 | 37141 ft | 467 kts | 231° |
| 2026-04-13 21:36 | 46.62983 | 38.77592 | 37147 ft | 468 kts | 231° |
| 2026-04-13 21:37 | 46.58900 | 38.70215 | 37141 ft | 468 kts | 230° |
| 2026-04-13 21:37 | 46.54640 | 38.63141 | 37151 ft | 468 kts | 227° |
| 2026-04-13 21:38 | 46.50259 | 38.56122 | 37156 ft | 469 kts | 227° |
| 2026-04-13 21:38 | 46.45898 | 38.49081 | 37153 ft | 469 kts | 228° |
| 2026-04-13 21:39 | 46.41553 | 38.42023 | 37159 ft | 469 kts | 228° |
| 2026-04-13 21:39 | 46.37208 | 38.34969 | 37168 ft | 469 kts | 229° |
| 2026-04-13 21:40 | 46.32859 | 38.27928 | 37163 ft | 468 kts | 228° |
| 2026-04-13 21:40 | 46.28513 | 38.20912 | 37165 ft | 468 kts | 228° |
| 2026-04-13 21:41 | 46.24169 | 38.13919 | 37165 ft | 467 kts | 228° |
| 2026-04-13 21:41 | 46.19832 | 38.06950 | 37173 ft | 466 kts | 229° |
| 2026-04-13 21:42 | 46.15492 | 38.00013 | 37168 ft | 465 kts | 228° |
| 2026-04-13 21:42 | 46.11139 | 37.93130 | 37173 ft | 464 kts | 229° |
| 2026-04-13 21:43 | 46.06787 | 37.86261 | 37172 ft | 463 kts | 229° |
| 2026-04-13 21:43 | 46.02472 | 37.79467 | 37174 ft | 463 kts | 229° |
| 2026-04-13 21:44 | 45.98131 | 37.72645 | 37185 ft | 462 kts | 230° |
| 2026-04-13 21:44 | 45.93788 | 37.65833 | 37184 ft | 462 kts | 229° |
| 2026-04-13 21:45 | 45.89452 | 37.59042 | 37193 ft | 461 kts | 229° |
| 2026-04-13 21:45 | 45.85106 | 37.52262 | 37188 ft | 462 kts | 229° |
| 2026-04-13 21:46 | 45.80759 | 37.45491 | 37198 ft | 462 kts | 229° |
| 2026-04-13 21:46 | 45.76404 | 37.38720 | 37191 ft | 462 kts | 229° |
| 2026-04-13 21:47 | 45.72230 | 37.31739 | 37207 ft | 461 kts | 233° |
| 2026-04-13 21:47 | 45.68288 | 37.24498 | 37204 ft | 462 kts | 234° |
| 2026-04-13 21:48 | 45.64339 | 37.17248 | 37207 ft | 462 kts | 233° |
| 2026-04-13 21:48 | 45.60356 | 37.10027 | 37203 ft | 463 kts | 234° |
| 2026-04-13 21:49 | 45.56357 | 37.02827 | 37212 ft | 463 kts | 233° |
| 2026-04-13 21:49 | 45.52370 | 36.95669 | 37221 ft | 463 kts | 233° |
| 2026-04-13 21:50 | 45.48360 | 36.88484 | 37221 ft | 463 kts | 233° |
| 2026-04-13 21:50 | 45.44347 | 36.81309 | 37230 ft | 462 kts | 234° |
| 2026-04-13 21:51 | 45.40340 | 36.74162 | 37222 ft | 461 kts | 234° |
| 2026-04-13 21:51 | 45.36553 | 36.66839 | 37214 ft | 457 kts | 245° |
| 2026-04-13 21:52 | 45.34444 | 36.58435 | 37217 ft | 450 kts | 263° |
| 2026-04-13 21:52 | 45.33758 | 36.49655 | 37222 ft | 446 kts | 266° |
| 2026-04-13 21:53 | 45.33143 | 36.40885 | 37229 ft | 445 kts | 266° |
| 2026-04-13 21:53 | 45.32489 | 36.32200 | 37245 ft | 444 kts | 266° |
| 2026-04-13 21:54 | 45.31804 | 36.23481 | 37238 ft | 444 kts | 266° |
| 2026-04-13 21:54 | 45.31108 | 36.14775 | 37247 ft | 443 kts | 266° |
| 2026-04-13 21:55 | 45.30409 | 36.06084 | 37247 ft | 443 kts | 266° |
| 2026-04-13 21:55 | 45.29704 | 35.97405 | 37246 ft | 442 kts | 266° |
| 2026-04-13 21:56 | 45.28995 | 35.88748 | 37249 ft | 441 kts | 266° |
| 2026-04-13 21:56 | 45.28281 | 35.80093 | 36859 ft | 446 kts | 266° |
| 2026-04-13 21:56 | 45.27918 | 35.75736 | 36385 ft | 442 kts | 266° |
| 2026-04-13 21:57 | 45.27476 | 35.71403 | 35692 ft | 445 kts | 260° |
| 2026-04-13 21:57 | 45.26474 | 35.67219 | 35053 ft | 451 kts | 250° |
| 2026-04-13 21:57 | 45.24981 | 35.63282 | 34364 ft | 457 kts | 242° |
| 2026-04-13 21:57 | 45.22996 | 35.59710 | 33628 ft | 464 kts | 232° |
| 2026-04-13 21:58 | 45.20774 | 35.56385 | 32811 ft | 465 kts | 231° |
| 2026-04-13 21:58 | 45.18514 | 35.53096 | 32061 ft | 465 kts | 231° |
| 2026-04-13 21:58 | 45.16250 | 35.49816 | 31306 ft | 465 kts | 231° |
| 2026-04-13 21:58 | 45.14021 | 35.46570 | 30551 ft | 466 kts | 231° |
| 2026-04-13 21:59 | 45.11769 | 35.43267 | 29611 ft | 466 kts | 231° |
| 2026-04-13 21:59 | 45.09524 | 35.39955 | 28708 ft | 466 kts | 230° |
| 2026-04-13 21:59 | 45.07289 | 35.36650 | 27791 ft | 465 kts | 231° |
| 2026-04-13 21:59 | 45.05058 | 35.33348 | 26901 ft | 463 kts | 231° |
| 2026-04-13 22:00 | 45.02831 | 35.30051 | 26013 ft | 463 kts | 231° |
| 2026-04-13 22:00 | 45.00623 | 35.26789 | 25386 ft | 456 kts | 230° |
| 2026-04-13 22:00 | 44.98441 | 35.23570 | 24720 ft | 451 kts | 230° |
| 2026-04-13 22:00 | 44.97009 | 35.21459 | 24296 ft | 447 kts | 230° |
| 2026-04-13 22:01 | 44.94868 | 35.18306 | 23601 ft | 443 kts | 229° |
| 2026-04-13 22:01 | 44.92745 | 35.15181 | 22830 ft | 438 kts | 229° |
| 2026-04-13 22:01 | 44.90653 | 35.12108 | 22174 ft | 431 kts | 231° |
| 2026-04-13 22:01 | 44.88595 | 35.09089 | 21543 ft | 424 kts | 230° |
| 2026-04-13 22:02 | 44.86566 | 35.06113 | 20919 ft | 418 kts | 229° |
| 2026-04-13 22:02 | 44.84565 | 35.03181 | 20273 ft | 413 kts | 229° |
| 2026-04-13 22:02 | 44.82587 | 35.00284 | 19655 ft | 408 kts | 228° |
| 2026-04-13 22:02 | 44.80625 | 34.97414 | 19042 ft | 404 kts | 227° |
| 2026-04-13 22:03 | 44.78683 | 34.94577 | 18415 ft | 400 kts | 226° |
| 2026-04-13 22:03 | 44.76761 | 34.91773 | 17743 ft | 396 kts | 226° |
| 2026-04-13 22:03 | 44.74862 | 34.89006 | 17137 ft | 391 kts | 226° |
| 2026-04-13 22:03 | 44.72984 | 34.86273 | 16538 ft | 386 kts | 226° |
| 2026-04-13 22:04 | 44.71124 | 34.83569 | 15941 ft | 382 kts | 226° |
| 2026-04-13 22:04 | 44.69283 | 34.80894 | 15345 ft | 379 kts | 226° |
| 2026-04-13 22:04 | 44.67454 | 34.78239 | 14750 ft | 377 kts | 226° |
| 2026-04-13 22:04 | 44.65628 | 34.75591 | 14170 ft | 377 kts | 226° |
| 2026-04-13 22:05 | 44.63800 | 34.72943 | 13532 ft | 379 kts | 226° |
| 2026-04-13 22:05 | 44.61952 | 34.70269 | 12953 ft | 383 kts | 226° |
| 2026-04-13 22:05 | 44.60122 | 34.67622 | 12399 ft | 381 kts | 226° |
| 2026-04-13 22:05 | 44.58296 | 34.64983 | 12044 ft | 372 kts | 226° |
| 2026-04-13 22:06 | 44.56525 | 34.62427 | 11762 ft | 360 kts | 226° |
| 2026-04-13 22:06 | 44.54803 | 34.59944 | 11557 ft | 348 kts | 226° |
| 2026-04-13 22:06 | 44.53147 | 34.57559 | 11386 ft | 336 kts | 226° |
| 2026-04-13 22:06 | 44.51540 | 34.55244 | 11224 ft | 325 kts | 226° |
| 2026-04-13 22:07 | 44.49978 | 34.52997 | 10982 ft | 318 kts | 226° |
| 2026-04-13 22:07 | 44.48457 | 34.50812 | 10839 ft | 308 kts | 226° |
| 2026-04-13 22:07 | 44.46981 | 34.48695 | 10711 ft | 299 kts | 226° |
| 2026-04-13 22:07 | 44.45551 | 34.46644 | 10624 ft | 289 kts | 226° |
| 2026-04-13 22:08 | 44.44177 | 34.44640 | 10393 ft | 284 kts | 232° |
| 2026-04-13 22:08 | 44.43324 | 34.42223 | 10235 ft | 274 kts | 260° |
| 2026-04-13 22:08 | 44.43368 | 34.39628 | 10105 ft | 264 kts | 286° |
| 2026-04-13 22:08 | 44.44169 | 34.37388 | 10012 ft | 254 kts | 310° |
| 2026-04-13 22:09 | 44.45499 | 34.35827 | 9934 ft | 249 kts | 331° |
| 2026-04-13 22:09 | 44.47115 | 34.35000 | 9857 ft | 251 kts | 353° |
| 2026-04-13 22:09 | 44.48875 | 34.34929 | 9830 ft | 256 kts | 0° |
| 2026-04-13 22:09 | 44.50669 | 34.34966 | 9728 ft | 259 kts | 1° |
| 2026-04-13 22:10 | 44.52461 | 34.35012 | 9644 ft | 257 kts | 1° |
| 2026-04-13 22:10 | 44.54241 | 34.35058 | 9560 ft | 255 kts | 1° |
| 2026-04-13 22:10 | 44.56008 | 34.35102 | 9498 ft | 253 kts | 1° |
| 2026-04-13 22:10 | 44.57763 | 34.35142 | 9434 ft | 251 kts | 0° |
| 2026-04-13 22:11 | 44.59484 | 34.35180 | 9351 ft | 250 kts | 0° |
| 2026-04-13 22:11 | 44.61228 | 34.35218 | 9283 ft | 252 kts | 0° |
| 2026-04-13 22:11 | 44.62996 | 34.35256 | 9188 ft | 256 kts | 0° |
| 2026-04-13 22:11 | 44.64782 | 34.35293 | 9102 ft | 255 kts | 0° |
| 2026-04-13 22:12 | 44.66542 | 34.35207 | 9067 ft | 252 kts | 346° |
| 2026-04-13 22:12 | 44.68111 | 34.34160 | 9107 ft | 251 kts | 328° |
| 2026-04-13 22:12 | 44.69613 | 34.32867 | 9088 ft | 253 kts | 329° |
| 2026-04-13 22:12 | 44.71116 | 34.31574 | 9076 ft | 253 kts | 329° |
| 2026-04-13 22:13 | 44.72617 | 34.30286 | 9073 ft | 252 kts | 329° |
| 2026-04-13 22:13 | 44.74108 | 34.29009 | 9073 ft | 251 kts | 329° |
| 2026-04-13 22:13 | 44.75599 | 34.27736 | 9084 ft | 251 kts | 329° |
| 2026-04-13 22:13 | 44.77072 | 34.26479 | 9091 ft | 251 kts | 329° |
| 2026-04-13 22:14 | 44.78569 | 34.25201 | 9096 ft | 252 kts | 329° |
| 2026-04-13 22:14 | 44.80069 | 34.23920 | 9097 ft | 253 kts | 329° |
| 2026-04-13 22:14 | 44.81616 | 34.22550 | 8390 ft | 272 kts | 328° |
| 2026-04-13 22:14 | 44.83219 | 34.21094 | 7710 ft | 277 kts | 327° |
| 2026-04-13 22:15 | 44.84842 | 34.19618 | 7176 ft | 277 kts | 328° |
| 2026-04-13 22:15 | 44.86397 | 34.18088 | 6822 ft | 269 kts | 316° |
| 2026-04-13 22:15 | 44.87375 | 34.15904 | 6502 ft | 261 kts | 291° |
| 2026-04-13 22:15 | 44.87829 | 34.13490 | 6267 ft | 247 kts | 282° |
| 2026-04-13 22:16 | 44.88139 | 34.11214 | 6148 ft | 227 kts | 282° |
| 2026-04-13 22:16 | 44.88422 | 34.09130 | 6083 ft | 206 kts | 282° |
| 2026-04-13 22:16 | 44.88697 | 34.07170 | 6093 ft | 203 kts | 283° |
| 2026-04-13 22:16 | 44.88977 | 34.05215 | 6099 ft | 207 kts | 283° |
| 2026-04-13 22:17 | 44.89275 | 34.03176 | 6069 ft | 216 kts | 284° |
| 2026-04-13 22:17 | 44.89657 | 34.01117 | 5936 ft | 216 kts | 287° |
| 2026-04-13 22:17 | 44.90052 | 33.99079 | 5818 ft | 214 kts | 286° |
| 2026-04-13 22:17 | 44.90439 | 33.97072 | 5706 ft | 211 kts | 286° |
| 2026-04-13 22:18 | 44.90819 | 33.95081 | 5606 ft | 210 kts | 286° |
| 2026-04-13 22:18 | 44.91196 | 33.93087 | 5501 ft | 210 kts | 286° |
| 2026-04-13 22:18 | 44.91571 | 33.91104 | 5401 ft | 209 kts | 286° |
| 2026-04-13 22:18 | 44.91945 | 33.89117 | 5297 ft | 209 kts | 286° |
| 2026-04-13 22:19 | 44.92026 | 33.87081 | 5141 ft | 212 kts | 254° |
| 2026-04-13 22:19 | 44.91199 | 33.85410 | 5106 ft | 212 kts | 216° |
| 2026-04-13 22:19 | 44.89836 | 33.84726 | 5103 ft | 216 kts | 181° |
| 2026-04-13 22:19 | 44.88401 | 33.85275 | 5113 ft | 216 kts | 151° |
| 2026-04-13 22:20 | 44.87103 | 33.86362 | 5095 ft | 216 kts | 147° |
| 2026-04-13 22:20 | 44.85838 | 33.87500 | 5098 ft | 216 kts | 146° |
| 2026-04-13 22:20 | 44.84570 | 33.88640 | 5092 ft | 216 kts | 146° |
| 2026-04-13 22:20 | 44.83294 | 33.89774 | 5091 ft | 217 kts | 147° |
| 2026-04-13 22:21 | 44.82017 | 33.90901 | 5095 ft | 217 kts | 147° |
| 2026-04-13 22:21 | 44.80734 | 33.92027 | 5090 ft | 217 kts | 147° |
| 2026-04-13 22:21 | 44.79451 | 33.93150 | 5099 ft | 217 kts | 147° |
| 2026-04-13 22:21 | 44.78155 | 33.94247 | 5092 ft | 218 kts | 154° |
| 2026-04-13 22:22 | 44.76696 | 33.94527 | 5090 ft | 211 kts | 194° |
| 2026-04-13 22:22 | 44.75456 | 33.93533 | 5031 ft | 208 kts | 228° |
| 2026-04-13 22:22 | 44.74790 | 33.91740 | 4672 ft | 208 kts | 261° |
| 2026-04-13 22:22 | 44.74861 | 33.89769 | 4361 ft | 200 kts | 292° |
| 2026-04-13 22:23 | 44.75677 | 33.88282 | 4105 ft | 189 kts | 330° |
| 2026-04-13 22:23 | 44.76892 | 33.87743 | 4032 ft | 185 kts | 359° |
| 2026-04-13 22:23 | 44.78170 | 33.88050 | 3971 ft | 189 kts | 14° |
| 2026-04-13 22:23 | 44.79459 | 33.88518 | 3870 ft | 193 kts | 14° |
| 2026-04-13 22:24 | 44.80755 | 33.88991 | 3757 ft | 192 kts | 14° |
| 2026-04-13 22:24 | 44.82043 | 33.89464 | 3682 ft | 191 kts | 14° |
| 2026-04-13 22:24 | 44.83319 | 33.89931 | 3591 ft | 187 kts | 14° |
| 2026-04-13 22:24 | 44.84561 | 33.90309 | 3487 ft | 178 kts | 12° |
| 2026-04-13 22:25 | 44.85763 | 33.90651 | 3405 ft | 176 kts | 11° |
| 2026-04-13 22:25 | 44.86952 | 33.91009 | 3323 ft | 174 kts | 15° |
| 2026-04-13 22:25 | 44.88114 | 33.91459 | 3239 ft | 171 kts | 15° |
| 2026-04-13 22:25 | 44.89217 | 33.91872 | 3104 ft | 162 kts | 13° |
| 2026-04-13 22:26 | 44.90268 | 33.92250 | 3052 ft | 151 kts | 13° |
| 2026-04-13 22:26 | 44.91297 | 33.92611 | 3022 ft | 154 kts | 12° |
| 2026-04-13 22:26 | 44.92342 | 33.92960 | 2969 ft | 155 kts | 12° |
| 2026-04-13 22:26 | 44.93396 | 33.93314 | 2784 ft | 156 kts | 12° |
| 2026-04-13 22:27 | 44.94440 | 33.93670 | 2582 ft | 153 kts | 12° |
| 2026-04-13 22:27 | 44.95472 | 33.94024 | 2361 ft | 152 kts | 12° |
| 2026-04-13 22:27 | 44.96497 | 33.94376 | 2153 ft | 152 kts | 12° |
| 2026-04-13 22:27 | 44.97522 | 33.94729 | 1946 ft | 151 kts | 13° |
| 2026-04-13 22:28 | 44.98544 | 33.95084 | 1727 ft | 151 kts | 13° |
| 2026-04-13 22:28 | 44.99563 | 33.95431 | 1526 ft | 150 kts | 13° |
| 2026-04-13 22:28 | 45.00585 | 33.95778 | 1313 ft | 151 kts | 13° |
| 2026-04-13 22:28 | 45.01603 | 33.96132 | 1078 ft | 151 kts | 13° |
| 2026-04-13 22:29 | 45.02621 | 33.96481 | 854 ft | 150 kts | 13° |
| 2026-04-13 22:29 | 45.03640 | 33.96833 | 654 ft | 151 kts | 13° |
| 2026-04-13 22:29 | 45.04594 | 33.97156 | 625 ft | 125 kts | 14° |
| 2026-04-13 22:29 | 45.05294 | 33.97401 | 640 ft | 82 kts | 13° |
| 2026-04-13 22:30 | 45.05707 | 33.97540 | 637 ft | 42 kts | 14° |
| 2026-04-13 22:30 | 45.05843 | 33.97701 | 630 ft | 20 kts | 45° |
| 2026-04-13 22:30 | 45.05872 | 33.97740 | 640 ft | 0 kts | 45° |
| 2026-04-13 22:31 | 45.05872 | 33.97741 | 640 ft | 1 kts | 45° |
| 2026-04-13 22:31 | 45.05892 | 33.97773 | 630 ft | 9 kts | 53° |
| 2026-04-13 22:31 | 45.05896 | 33.97872 | 632 ft | 13 kts | 118° |
| 2026-04-13 22:31 | 45.05802 | 33.97899 | 626 ft | 17 kts | 189° |
| 2026-04-13 22:32 | 45.05686 | 33.97869 | 629 ft | 17 kts | 190° |
| 2026-04-13 22:32 | 45.05567 | 33.97838 | 630 ft | 18 kts | 192° |
| 2026-04-13 22:32 | 45.05449 | 33.97807 | 629 ft | 16 kts | 190° |
| 2026-04-13 22:32 | 45.05340 | 33.97779 | 637 ft | 16 kts | 190° |
| 2026-04-13 22:33 | 45.05249 | 33.97746 | 635 ft | 10 kts | 193° |
| 2026-04-13 22:33 | 45.05170 | 33.97719 | 638 ft | 13 kts | 193° |
| 2026-04-13 22:33 | 45.05076 | 33.97687 | 633 ft | 15 kts | 193° |
| 2026-04-13 22:34 | 45.04716 | 33.97564 | 631 ft | 20 kts | 193° |
| 2026-04-13 22:34 | 45.04576 | 33.97516 | 623 ft | 22 kts | 195° |
| 2026-04-13 22:34 | 45.04432 | 33.97468 | 625 ft | 21 kts | 193° |
| 2026-04-13 22:35 | 45.04292 | 33.97420 | 630 ft | 20 kts | 193° |
| 2026-04-13 22:35 | 45.04156 | 33.97374 | 623 ft | 20 kts | 193° |
| 2026-04-13 22:35 | 45.04025 | 33.97328 | 627 ft | 19 kts | 193° |
| 2026-04-13 22:35 | 45.03897 | 33.97285 | 636 ft | 19 kts | 193° |
| 2026-04-13 22:36 | 45.03774 | 33.97243 | 628 ft | 19 kts | 193° |
| 2026-04-13 22:36 | 45.03647 | 33.97200 | 638 ft | 14 kts | 194° |
| 2026-04-13 22:36 | 45.03558 | 33.97174 | 636 ft | 13 kts | 179° |
| 2026-04-13 22:36 | 45.03513 | 33.97276 | 623 ft | 14 kts | 103° |
| 2026-04-13 22:37 | 45.03487 | 33.97422 | 626 ft | 16 kts | 103° |
| 2026-04-13 22:37 | 45.03458 | 33.97583 | 623 ft | 15 kts | 105° |
| 2026-04-13 22:37 | 45.03433 | 33.97728 | 629 ft | 16 kts | 104° |
| 2026-04-13 22:37 | 45.03405 | 33.97888 | 634 ft | 18 kts | 104° |
| 2026-04-13 22:38 | 45.03407 | 33.97974 | 623 ft | 9 kts | 55° |
| 2026-04-13 22:38 | 45.03469 | 33.98008 | 623 ft | 11 kts | 13° |
| 2026-04-13 22:38 | 45.03485 | 33.98014 | 639 ft | 0 kts | 13° |